Greenwd, Indiana
Current Conditions -  °F | °C
As of 7:17 AM on Monday 24 Nov 2014 (Local Time) from KIND Reporting Station
Overcast Overcast  
Wind Chill: 53°   Ceiling: 7500
Heat Index: 53°   Visibility: 10mi
Dew Point: 48°   Wind: 24mph
Humidity: 83%   Direction: 210°SSW
Pressure: 29.18"   Gusts: 32mph
Location:  39.5883°N, 86.07°W
Report Text: KIND 241217Z 21021G28KT 10SM SCT023 BKN075 BKN100 OVC180 12/09 A2918 RMK AO2 PK WND 21033/1157 RAE15 OCNL LTGIC DSNT S CB DSNT S P0001 T01170089
Loading
Personal Weather Stations






























Interactive Weather Map New forecast layout! Learn more

10-Day Weather Forecast

Advertisements
Track Severe Weather on mobile